createdAt,value
2023-05-08T00:01:27.280Z,79.35
2023-05-08T00:03:57.313Z,79.84
2023-05-08T00:06:27.691Z,79.07
2023-05-08T00:08:57.730Z,79.48
2023-05-08T00:11:27.755Z,79.06
2023-05-08T00:14:00.328Z,80.07
2023-05-08T00:16:30.343Z,79.19
2023-05-08T00:19:00.772Z,79.09
2023-05-08T00:21:31.359Z,79.43
2023-05-08T00:24:01.389Z,79.40
2023-05-08T00:26:31.456Z,79.15
2023-05-08T00:29:06.013Z,79.63
2023-05-08T00:31:36.593Z,79.74
2023-05-08T00:34:06.638Z,80.56
2023-05-08T00:36:36.645Z,79.77
2023-05-08T00:39:06.964Z,78.55
2023-05-08T00:41:36.893Z,79.08
2023-05-08T00:44:09.489Z,78.95
2023-05-08T00:46:39.938Z,79.02
2023-05-08T00:49:14.638Z,79.38
2023-05-08T00:51:45.963Z,79.28
2023-05-08T00:54:16.745Z,78.89
2023-05-08T00:56:48.723Z,79.21
2023-05-08T00:59:24.218Z,79.04
2023-05-08T01:01:55.825Z,79.02
2023-05-08T01:04:29.564Z,79.04
2023-05-08T01:06:59.552Z,79.27
2023-05-08T01:09:29.478Z,78.63
2023-05-08T01:12:18.933Z,79.27
2023-05-08T01:15:03.693Z,78.88
2023-05-08T01:17:50.782Z,79.12
2023-05-08T01:20:38.753Z,79.35
2023-05-08T01:23:47.347Z,79.73
2023-05-08T01:26:45.095Z,79.72
2023-05-08T01:30:02.856Z,80.47
2023-05-08T01:32:42.109Z,80.14
2023-05-08T01:35:23.304Z,80.48
2023-05-08T01:38:00.958Z,80.23
2023-05-08T01:40:40.236Z,79.52
2023-05-08T01:43:21.660Z,79.61
2023-05-08T01:45:55.951Z,79.80
2023-05-08T01:48:33.994Z,79.76
2023-05-08T01:51:10.919Z,80.19
2023-05-08T01:53:45.716Z,80.92
2023-05-08T01:56:22.283Z,80.73
2023-05-08T01:58:55.836Z,81.15
2023-05-08T02:01:29.563Z,80.13
2023-05-08T02:04:04.055Z,80.31
2023-05-08T02:06:36.247Z,80.84
2023-05-08T02:09:06.233Z,80.91
2023-05-08T02:11:40.286Z,80.87
2023-05-08T02:14:12.189Z,80.82
2023-05-08T02:16:44.958Z,81.19
2023-05-08T02:19:20.044Z,80.90
2023-05-08T02:21:53.575Z,80.65
2023-05-08T02:24:25.234Z,80.73
2023-05-08T02:26:58.832Z,80.99
2023-05-08T02:29:31.850Z,80.30
2023-05-08T02:32:06.488Z,80.25
2023-05-08T02:34:45.224Z,80.30
2023-05-08T02:37:24.751Z,80.63
2023-05-08T02:40:00.353Z,80.50
2023-05-08T02:42:30.679Z,80.74
2023-05-08T02:45:00.777Z,80.48
2023-05-08T02:47:40.945Z,80.79
2023-05-08T02:50:21.326Z,80.70
2023-05-08T02:52:55.370Z,80.77
2023-05-08T02:55:37.177Z,80.79
2023-05-08T02:58:17.783Z,81.01
2023-05-08T03:00:53.181Z,80.63
2023-05-08T03:03:28.193Z,80.70
2023-05-08T03:06:05.438Z,80.87
2023-05-08T03:08:38.097Z,81.12
2023-05-08T03:11:14.855Z,80.92
2023-05-08T03:13:48.352Z,80.57
2023-05-08T03:16:24.946Z,80.43
2023-05-08T03:18:59.716Z,80.96
2023-05-08T03:21:34.582Z,80.81
2023-05-08T03:24:08.585Z,81.52
2023-05-08T03:26:40.031Z,81.04
2023-05-08T03:29:11.237Z,80.90
2023-05-08T03:31:43.326Z,80.74
2023-05-08T03:34:16.453Z,80.81
2023-05-08T03:36:49.622Z,81.23
2023-05-08T03:39:20.083Z,81.60
2023-05-08T03:41:51.046Z,81.21
2023-05-08T03:44:22.792Z,81.27
2023-05-08T03:46:58.676Z,80.47
2023-05-08T03:49:30.615Z,81.33
2023-05-08T03:52:03.792Z,81.31
2023-05-08T03:54:34.027Z,81.57
2023-05-08T03:57:04.067Z,80.96
2023-05-08T03:59:45.277Z,81.13
2023-05-08T04:02:28.324Z,81.27
2023-05-08T04:05:09.264Z,80.98
2023-05-08T04:07:50.925Z,81.37
2023-05-08T04:10:31.300Z,81.53
2023-05-08T04:13:10.174Z,81.00
2023-05-08T04:15:54.666Z,80.87
2023-05-08T04:18:32.204Z,80.75
2023-05-08T04:21:11.616Z,80.46
2023-05-08T04:23:48.923Z,81.23
2023-05-08T04:26:21.072Z,81.32
2023-05-08T04:28:52.842Z,80.54
2023-05-08T04:31:23.128Z,80.69
2023-05-08T04:33:53.719Z,81.04
2023-05-08T04:36:23.960Z,80.54
2023-05-08T04:38:56.514Z,80.27
2023-05-08T04:41:26.952Z,80.63
2023-05-08T04:43:57.602Z,80.03
2023-05-08T04:46:27.681Z,80.05
2023-05-08T04:48:58.278Z,80.20
2023-05-08T04:51:28.298Z,80.39
2023-05-08T04:54:01.306Z,79.99
2023-05-08T04:56:32.306Z,80.10
2023-05-08T04:59:03.198Z,80.12
2023-05-08T05:01:33.294Z,80.38
2023-05-08T05:04:03.615Z,80.19
2023-05-08T05:06:33.928Z,80.57
2023-05-08T05:09:07.158Z,80.92
2023-05-08T05:11:37.188Z,80.85
2023-05-08T05:14:07.436Z,81.34
2023-05-08T05:16:38.304Z,81.40
2023-05-08T05:19:08.445Z,81.42
2023-05-08T05:21:39.940Z,80.78
2023-05-08T05:24:12.729Z,81.21
2023-05-08T05:26:42.824Z,80.87
2023-05-08T05:29:13.364Z,81.19
2023-05-08T05:31:43.433Z,80.88
2023-05-08T05:34:13.747Z,81.04
2023-05-08T05:36:44.202Z,81.29
2023-05-08T05:39:16.776Z,80.73
2023-05-08T05:41:46.866Z,80.53
2023-05-08T05:44:16.853Z,80.53
2023-05-08T05:46:46.901Z,80.46
2023-05-08T05:49:16.944Z,80.71
2023-05-08T05:51:47.109Z,80.28
2023-05-08T05:54:20.620Z,80.36
2023-05-08T05:56:50.686Z,80.48
2023-05-08T05:59:20.855Z,80.27
2023-05-08T06:01:50.910Z,80.60
2023-05-08T06:04:21.465Z,80.05
2023-05-08T06:06:51.499Z,80.08
2023-05-08T06:09:24.060Z,80.37
2023-05-08T06:11:54.962Z,80.36
2023-05-08T06:14:24.905Z,80.44
2023-05-08T06:16:54.946Z,80.61
2023-05-08T06:19:25.130Z,80.63
2023-05-08T06:21:55.557Z,80.09
2023-05-08T06:24:28.364Z,80.29
2023-05-08T06:26:58.302Z,80.53
2023-05-08T06:29:28.218Z,80.84
2023-05-08T06:31:58.540Z,80.38
2023-05-08T06:34:28.500Z,80.58
2023-05-08T06:36:58.432Z,80.87
2023-05-08T06:39:31.084Z,80.48
2023-05-08T06:42:01.166Z,80.28
2023-05-08T06:44:34.297Z,80.01
2023-05-08T06:47:04.612Z,79.42
2023-05-08T06:49:34.524Z,79.47
2023-05-08T06:52:04.533Z,79.41
2023-05-08T06:54:37.029Z,78.73
2023-05-08T06:57:07.856Z,78.41
2023-05-08T06:59:37.872Z,77.71
2023-05-08T07:02:10.023Z,77.93
2023-05-08T07:04:40.273Z,77.68
2023-05-08T07:07:11.677Z,76.78
2023-05-08T07:09:44.310Z,76.04
2023-05-08T07:12:16.769Z,77.48
2023-05-08T07:14:46.785Z,76.39
2023-05-08T07:17:16.807Z,76.31
2023-05-08T07:19:46.782Z,76.89
2023-05-08T07:22:16.790Z,77.04
2023-05-08T07:24:49.375Z,76.46
2023-05-08T07:27:20.169Z,76.33
2023-05-08T07:29:50.217Z,75.64
2023-05-08T07:32:20.437Z,75.63
2023-05-08T07:34:50.481Z,76.43
2023-05-08T07:37:20.481Z,77.34
2023-05-08T07:39:53.065Z,77.37
2023-05-08T07:42:23.103Z,77.31
2023-05-08T07:44:55.115Z,76.40
2023-05-08T07:47:25.697Z,75.58
2023-05-08T07:49:56.458Z,75.86
2023-05-08T07:52:26.655Z,76.35
2023-05-08T07:54:59.256Z,76.19
2023-05-08T07:57:29.244Z,76.15
2023-05-08T08:00:04.613Z,76.69
2023-05-08T08:02:44.003Z,76.66
2023-05-08T08:05:14.594Z,76.80
2023-05-08T08:07:44.920Z,77.16
2023-05-08T08:10:17.730Z,76.85
2023-05-08T08:12:48.509Z,76.88
2023-05-08T08:15:18.708Z,75.98
2023-05-08T08:17:49.094Z,76.63
2023-05-08T08:20:19.358Z,76.46
2023-05-08T08:22:49.398Z,76.08
2023-05-08T08:25:22.620Z,76.04
2023-05-08T08:27:52.600Z,76.43
2023-05-08T08:30:22.886Z,76.01
2023-05-08T08:32:53.012Z,76.31
2023-05-08T08:35:29.334Z,75.46
2023-05-08T08:37:59.717Z,74.71
2023-05-08T08:40:32.389Z,75.21
2023-05-08T08:43:02.517Z,74.51
2023-05-08T08:45:33.804Z,74.81
2023-05-08T08:48:05.331Z,73.91
2023-05-08T08:50:36.246Z,72.77
2023-05-08T08:53:13.307Z,73.63
2023-05-08T08:55:49.906Z,73.68
2023-05-08T08:58:26.913Z,72.67
2023-05-08T09:00:58.189Z,73.89
2023-05-08T09:03:28.617Z,74.47
2023-05-08T09:06:02.077Z,74.31
2023-05-08T09:08:32.677Z,74.66
2023-05-08T09:11:05.746Z,74.27
2023-05-08T09:13:35.970Z,73.54
2023-05-08T09:16:06.462Z,74.56
2023-05-08T09:18:36.427Z,75.72
2023-05-08T09:21:08.909Z,75.97
2023-05-08T09:23:38.982Z,76.44
2023-05-08T09:26:12.056Z,76.82
2023-05-08T09:28:42.017Z,77.43
2023-05-08T09:31:12.062Z,75.82
2023-05-08T09:33:47.878Z,76.28
2023-05-08T09:36:29.632Z,77.25
2023-05-08T09:38:59.611Z,77.27
2023-05-08T09:41:32.305Z,76.14
2023-05-08T09:44:07.379Z,76.45
2023-05-08T09:46:38.146Z,74.81
2023-05-08T09:49:08.180Z,75.31
2023-05-08T09:51:38.270Z,75.05
2023-05-08T09:54:20.866Z,76.89
2023-05-08T09:56:53.709Z,75.90
2023-05-08T09:59:29.456Z,77.20
2023-05-08T10:02:00.592Z,76.67
2023-05-08T10:04:36.948Z,76.33
2023-05-08T10:07:07.619Z,76.11
2023-05-08T10:09:49.850Z,75.87
2023-05-08T10:12:24.400Z,76.19
2023-05-08T10:14:55.224Z,75.64
2023-05-08T10:17:30.646Z,75.33
2023-05-08T10:20:04.015Z,74.53
2023-05-08T10:22:40.037Z,74.40
2023-05-08T10:25:20.318Z,74.04
2023-05-08T10:28:02.396Z,73.96
2023-05-08T10:30:34.893Z,73.00
2023-05-08T10:33:11.140Z,72.71
2023-05-08T10:35:41.781Z,74.09
2023-05-08T10:38:12.458Z,74.53
2023-05-08T10:40:42.840Z,74.91
2023-05-08T10:43:16.159Z,75.89
2023-05-08T10:45:47.393Z,75.27
2023-05-08T10:48:35.002Z,74.95
2023-05-08T10:51:13.059Z,74.10
2023-05-08T10:53:51.754Z,73.11
2023-05-08T10:56:27.768Z,73.10
2023-05-08T10:59:04.163Z,73.42
2023-05-08T11:01:34.385Z,72.59
2023-05-08T11:04:04.553Z,72.23
2023-05-08T11:06:53.365Z,73.17
2023-05-08T11:09:24.855Z,72.69
2023-05-08T11:12:11.376Z,72.64
2023-05-08T11:14:46.849Z,72.10
2023-05-08T11:17:25.891Z,71.21
2023-05-08T11:20:01.359Z,70.07
2023-05-08T11:22:33.344Z,70.87
2023-05-08T11:25:06.290Z,71.16
2023-05-08T11:27:41.697Z,72.23
2023-05-08T11:30:37.718Z,71.64
2023-05-08T11:33:37.433Z,69.55
2023-05-08T11:36:17.619Z,70.27
2023-05-08T11:39:12.806Z,70.44
2023-05-08T11:41:42.944Z,69.69
2023-05-08T11:44:21.871Z,69.61
2023-05-08T11:46:56.611Z,69.66
2023-05-08T11:49:30.216Z,69.94
2023-05-08T11:52:03.903Z,69.38
2023-05-08T11:54:34.393Z,69.53
2023-05-08T11:57:04.532Z,69.09
2023-05-08T11:59:39.305Z,68.96
2023-05-08T12:02:11.892Z,69.91
2023-05-08T12:04:48.797Z,71.26
2023-05-08T12:07:18.976Z,69.91
2023-05-08T12:09:49.505Z,69.27
2023-05-08T12:12:19.527Z,70.14
2023-05-08T12:14:52.957Z,67.87
2023-05-08T12:17:25.779Z,68.53
2023-05-08T12:20:04.257Z,68.06
2023-05-08T12:22:34.548Z,67.72
2023-05-08T12:25:06.760Z,67.12
2023-05-08T12:27:36.825Z,67.57
2023-05-08T12:30:10.903Z,67.53
2023-05-08T12:32:45.531Z,68.23
2023-05-08T12:35:16.822Z,67.56
2023-05-08T12:37:48.799Z,65.15
2023-05-08T12:40:31.601Z,66.00
2023-05-08T12:43:04.510Z,64.60
2023-05-08T12:45:37.336Z,62.19
2023-05-08T12:48:11.764Z,64.01
2023-05-08T12:50:43.831Z,63.52
2023-05-08T12:53:15.970Z,60.93
2023-05-08T12:55:54.135Z,58.07
2023-05-08T12:58:28.155Z,60.06
2023-05-08T13:01:13.166Z,61.10
2023-05-08T13:03:50.747Z,58.56
2023-05-08T13:06:26.134Z,58.31
2023-05-08T13:08:57.247Z,61.10
2023-05-08T13:11:34.959Z,58.54
2023-05-08T13:14:04.942Z,58.74
2023-05-08T13:16:45.165Z,60.16
2023-05-08T13:19:19.190Z,60.26
2023-05-08T13:21:49.685Z,59.54
2023-05-08T13:24:20.110Z,60.31
2023-05-08T13:26:50.040Z,61.81
2023-05-08T13:29:22.240Z,62.28
2023-05-08T13:31:52.343Z,62.56
2023-05-08T13:34:25.691Z,63.16
2023-05-08T13:36:55.955Z,64.21
2023-05-08T13:39:25.993Z,63.83
2023-05-08T13:41:55.922Z,63.28
2023-05-08T13:44:25.980Z,63.44
2023-05-08T13:46:56.187Z,62.97
2023-05-08T13:49:28.834Z,63.88
2023-05-08T13:51:58.847Z,64.31
2023-05-08T13:54:28.913Z,63.97
2023-05-08T13:56:59.273Z,64.26
2023-05-08T13:59:31.395Z,62.96
2023-05-08T14:02:01.353Z,63.32
2023-05-08T14:04:34.059Z,63.55
2023-05-08T14:07:04.082Z,64.65
2023-05-08T14:09:34.068Z,62.74
2023-05-08T14:12:05.086Z,62.80
2023-05-08T14:14:35.147Z,63.74
2023-05-08T14:17:05.249Z,65.39
2023-05-08T14:19:37.905Z,65.43
2023-05-08T14:22:07.950Z,64.90
2023-05-08T14:24:37.976Z,63.80
2023-05-08T14:27:07.922Z,62.89
2023-05-08T14:29:38.063Z,62.39
2023-05-08T14:32:09.473Z,63.01
2023-05-08T14:34:42.005Z,62.68
2023-05-08T14:37:13.196Z,62.47
2023-05-08T14:39:43.263Z,63.10
2023-05-08T14:42:22.864Z,62.84
2023-05-08T14:44:53.791Z,60.15
2023-05-08T14:47:23.780Z,60.48
2023-05-08T14:49:56.944Z,59.19
2023-05-08T14:52:26.938Z,58.81
2023-05-08T14:54:58.868Z,60.05
2023-05-08T14:57:28.990Z,59.62
2023-05-08T14:59:58.930Z,58.30
2023-05-08T15:02:29.076Z,56.30
2023-05-08T15:05:03.222Z,54.88
2023-05-08T15:07:41.390Z,58.44
2023-05-08T15:10:12.997Z,56.03
2023-05-08T15:12:43.059Z,57.11
2023-05-08T15:15:13.825Z,58.35
2023-05-08T15:17:44.105Z,50.32
2023-05-08T15:20:16.811Z,52.09
2023-05-08T15:22:46.856Z,51.70
2023-05-08T15:25:17.132Z,55.84
2023-05-08T15:27:52.614Z,58.32
2023-05-08T15:30:23.232Z,57.04
2023-05-08T15:32:53.463Z,57.78
2023-05-08T15:35:28.603Z,58.16
2023-05-08T15:37:58.615Z,58.06
2023-05-08T15:40:28.593Z,57.87
2023-05-08T15:42:59.074Z,58.09
2023-05-08T15:45:29.174Z,58.90
2023-05-08T15:47:59.366Z,60.17
2023-05-08T15:50:31.987Z,59.89
2023-05-08T15:53:01.962Z,59.82
2023-05-08T15:55:31.931Z,60.67
2023-05-08T15:58:02.070Z,61.48
2023-05-08T16:00:43.929Z,62.40
2023-05-08T16:03:14.614Z,62.91
2023-05-08T16:05:47.684Z,63.59
2023-05-08T16:08:17.722Z,62.84
2023-05-08T16:10:48.668Z,63.74
2023-05-08T16:13:19.187Z,64.59
2023-05-08T16:15:49.254Z,64.75
2023-05-08T16:18:19.287Z,63.86
2023-05-08T16:20:51.928Z,64.53
2023-05-08T16:23:21.912Z,65.12
2023-05-08T16:25:51.901Z,64.85
2023-05-08T16:28:22.056Z,64.52
2023-05-08T16:30:52.061Z,65.26
2023-05-08T16:33:22.046Z,65.58
2023-05-08T16:35:54.739Z,65.59
2023-05-08T16:38:24.760Z,65.84
2023-05-08T16:40:54.766Z,65.41
2023-05-08T16:43:24.802Z,65.85
2023-05-08T16:45:55.499Z,64.90
2023-05-08T16:48:28.126Z,63.75
2023-05-08T16:51:00.728Z,63.49
2023-05-08T16:53:32.720Z,59.46
2023-05-08T16:56:02.741Z,58.56
2023-05-08T16:58:33.072Z,59.53
2023-05-08T17:01:03.115Z,60.83
2023-05-08T17:03:33.272Z,62.25
2023-05-08T17:06:09.035Z,63.03
2023-05-08T17:08:39.111Z,64.38
2023-05-08T17:11:09.029Z,64.54
2023-05-08T17:13:39.003Z,64.32
2023-05-08T17:16:10.244Z,64.28
2023-05-08T17:18:40.323Z,65.85
2023-05-08T17:21:13.013Z,67.36
2023-05-08T17:23:43.079Z,67.16
2023-05-08T17:26:13.124Z,67.47
2023-05-08T17:28:43.112Z,66.97
2023-05-08T17:33:44.728Z,67.97
2023-05-08T17:36:17.320Z,68.90
2023-05-08T17:38:47.461Z,69.49
2023-05-08T17:41:17.576Z,68.74
2023-05-08T17:43:47.587Z,68.39
2023-05-08T17:46:17.638Z,68.73
2023-05-08T17:48:47.697Z,68.79
2023-05-08T17:51:20.582Z,69.36
2023-05-08T17:53:50.700Z,69.68
2023-05-08T17:56:23.282Z,69.81
2023-05-08T17:58:53.485Z,70.24
2023-05-08T18:01:24.900Z,70.45
2023-05-08T18:03:56.004Z,70.39
2023-05-08T18:06:28.626Z,70.32
2023-05-08T18:09:01.115Z,70.52
2023-05-08T18:11:31.162Z,69.99
2023-05-08T18:14:01.182Z,70.57
2023-05-08T18:16:31.219Z,70.23
2023-05-08T18:19:01.522Z,70.63
2023-05-08T18:21:34.044Z,70.73
2023-05-08T18:24:04.084Z,70.46
2023-05-08T18:26:34.086Z,70.89
2023-05-08T18:29:04.060Z,71.27
2023-05-08T18:31:34.076Z,71.25
2023-05-08T18:34:04.186Z,71.25
2023-05-08T18:36:36.725Z,71.55
2023-05-08T18:39:07.385Z,71.94
2023-05-08T18:41:37.394Z,71.83
2023-05-08T18:44:08.019Z,72.53
2023-05-08T18:46:38.234Z,71.99
2023-05-08T18:49:08.309Z,72.71
2023-05-08T18:51:40.935Z,73.19
2023-05-08T18:54:10.988Z,72.48
2023-05-08T18:56:40.983Z,72.47
2023-05-08T18:59:11.220Z,72.43
2023-05-08T19:01:41.252Z,72.39
2023-05-08T19:04:11.443Z,73.13
2023-05-08T19:06:44.125Z,72.71
2023-05-08T19:09:14.140Z,72.85
2023-05-08T19:11:44.188Z,72.49
2023-05-08T19:14:14.471Z,73.40
2023-05-08T19:16:44.478Z,73.48
2023-05-08T19:19:14.502Z,73.28
2023-05-08T19:21:47.148Z,73.43
2023-05-08T19:24:21.024Z,73.61
2023-05-08T19:26:51.143Z,73.29
2023-05-08T19:29:21.187Z,73.72
2023-05-08T19:31:51.410Z,73.46
2023-05-08T19:34:21.559Z,74.28
2023-05-08T19:36:54.270Z,73.98
2023-05-08T19:39:24.306Z,74.65
2023-05-08T19:41:54.375Z,73.90
2023-05-08T19:44:24.524Z,74.22
2023-05-08T19:46:54.542Z,73.92
2023-05-08T19:49:24.560Z,74.21
2023-05-08T19:51:57.237Z,74.06
2023-05-08T19:54:27.318Z,74.06
2023-05-08T19:56:57.417Z,74.21
2023-05-08T19:59:27.782Z,74.50
2023-05-08T20:01:57.837Z,75.03
2023-05-08T20:04:27.896Z,74.68
2023-05-08T20:07:00.538Z,74.65
2023-05-08T20:09:30.609Z,75.08
2023-05-08T20:12:00.832Z,75.53
2023-05-08T20:14:30.858Z,75.53
2023-05-08T20:17:00.906Z,75.52
2023-05-08T20:19:30.963Z,75.62
2023-05-08T20:22:03.878Z,76.19
2023-05-08T20:24:33.934Z,75.83
2023-05-08T20:27:04.077Z,75.46
2023-05-08T20:29:34.125Z,75.69
2023-05-08T20:32:04.174Z,75.44
2023-05-08T20:34:34.195Z,75.48
2023-05-08T20:37:06.809Z,75.54
2023-05-08T20:39:36.802Z,75.84
2023-05-08T20:42:06.969Z,75.43
2023-05-08T20:44:37.139Z,75.67
2023-05-08T20:47:07.448Z,75.75
2023-05-08T20:49:37.508Z,75.51
2023-05-08T20:52:10.282Z,75.40
2023-05-08T20:54:40.287Z,75.72
2023-05-08T20:57:10.405Z,75.85
2023-05-08T20:59:40.437Z,76.07
2023-05-08T21:02:10.565Z,76.33
2023-05-08T21:04:40.671Z,76.67
2023-05-08T21:07:13.410Z,76.57
2023-05-08T21:09:43.414Z,76.27
2023-05-08T21:12:13.533Z,77.21
2023-05-08T21:14:44.114Z,76.69
2023-05-08T21:17:14.238Z,76.97
2023-05-08T21:19:44.157Z,76.64
2023-05-08T21:22:17.547Z,76.46
2023-05-08T21:24:47.675Z,76.84
2023-05-08T21:27:17.806Z,77.36
2023-05-08T21:29:47.869Z,76.55
2023-05-08T21:32:17.997Z,76.92
2023-05-08T21:34:48.124Z,77.85
2023-05-08T21:37:20.938Z,77.52
2023-05-08T21:39:50.987Z,76.98
2023-05-08T21:42:21.006Z,77.02
2023-05-08T21:44:51.044Z,77.22
2023-05-08T21:47:22.504Z,76.54
2023-05-08T21:49:52.605Z,77.67
2023-05-08T21:52:26.041Z,77.69
2023-05-08T21:54:56.073Z,77.49
2023-05-08T21:57:26.059Z,78.03
2023-05-08T21:59:56.059Z,77.85
2023-05-08T22:02:26.243Z,77.81
2023-05-08T22:07:28.984Z,78.20
2023-05-08T22:09:58.940Z,78.17
2023-05-08T22:12:29.062Z,78.04
2023-05-08T22:14:59.050Z,78.02
2023-05-08T22:17:29.101Z,78.36
2023-05-08T22:19:59.123Z,78.46
2023-05-08T22:22:31.678Z,78.38
2023-05-08T22:25:01.755Z,78.90
2023-05-08T22:27:31.785Z,78.72
2023-05-08T22:30:02.569Z,78.87
2023-05-08T22:32:32.605Z,78.06
2023-05-08T22:35:02.940Z,78.79
2023-05-08T22:37:35.619Z,78.92
2023-05-08T22:40:06.168Z,78.94
2023-05-08T22:42:36.189Z,79.26
2023-05-08T22:45:06.458Z,79.04
2023-05-08T22:47:37.356Z,78.97
2023-05-08T22:50:09.383Z,79.68
2023-05-08T22:52:42.645Z,79.89
2023-05-08T22:55:12.887Z,79.75
2023-05-08T22:57:43.008Z,80.46
2023-05-08T23:00:16.386Z,80.12
2023-05-08T23:02:46.467Z,80.24
2023-05-08T23:05:16.597Z,80.70
2023-05-08T23:07:49.209Z,80.32
2023-05-08T23:10:19.350Z,80.67
2023-05-08T23:12:49.337Z,80.52
2023-05-08T23:15:28.241Z,80.50
2023-05-08T23:17:58.287Z,80.03
2023-05-08T23:20:28.312Z,81.11
2023-05-08T23:23:01.197Z,81.39
2023-05-08T23:25:31.181Z,81.05
2023-05-08T23:28:01.123Z,80.53
2023-05-08T23:30:31.181Z,80.55
2023-05-08T23:33:01.181Z,81.19
2023-05-08T23:35:31.472Z,80.88
2023-05-08T23:38:04.032Z,81.70
2023-05-08T23:40:33.934Z,81.58
2023-05-08T23:43:04.387Z,81.17
2023-05-08T23:45:34.407Z,81.42
2023-05-08T23:48:04.413Z,82.23
2023-05-08T23:50:34.360Z,81.74
2023-05-08T23:53:06.902Z,81.90
2023-05-08T23:55:38.474Z,81.84
2023-05-08T23:58:08.384Z,81.51
